createdAt,value
2023-04-20T00:00:50.594Z,48.83
2023-04-20T00:03:21.759Z,48.42
2023-04-20T00:05:50.496Z,48.61
2023-04-20T00:08:18.724Z,48.45
2023-04-20T00:10:46.757Z,48.81
2023-04-20T00:13:14.846Z,48.50
2023-04-20T00:15:42.604Z,48.87
2023-04-20T00:18:10.664Z,48.73
2023-04-20T00:20:40.149Z,48.59
2023-04-20T00:23:08.117Z,48.26
2023-04-20T00:25:36.080Z,48.17
2023-04-20T00:28:04.195Z,47.84
2023-04-20T00:30:32.088Z,48.79
2023-04-20T00:33:00.120Z,49.09
2023-04-20T00:35:28.211Z,48.71
2023-04-20T00:37:57.466Z,48.42
2023-04-20T00:40:25.376Z,48.50
2023-04-20T00:42:53.158Z,48.44
2023-04-20T00:45:22.384Z,48.78
2023-04-20T00:47:50.325Z,49.08
2023-04-20T00:50:18.640Z,49.33
2023-04-20T00:52:47.060Z,49.52
2023-04-20T00:55:16.246Z,49.24
2023-04-20T00:57:44.423Z,50.15
2023-04-20T01:00:13.230Z,50.49
2023-04-20T01:02:41.506Z,50.88
2023-04-20T01:05:09.534Z,51.62
2023-04-20T01:07:37.926Z,51.20
2023-04-20T01:10:07.203Z,50.94
2023-04-20T01:12:36.762Z,51.07
2023-04-20T01:15:05.928Z,50.74
2023-04-20T01:17:34.849Z,51.26
2023-04-20T01:20:02.702Z,51.36
2023-04-20T01:22:32.295Z,51.38
2023-04-20T01:25:00.110Z,51.21
2023-04-20T01:27:28.003Z,51.30
2023-04-20T01:29:56.248Z,52.04
2023-04-20T01:32:24.334Z,50.85
2023-04-20T01:34:52.612Z,51.82
2023-04-20T01:37:20.551Z,51.91
2023-04-20T01:39:49.847Z,51.29
2023-04-20T01:42:18.070Z,52.20
2023-04-20T01:44:46.047Z,52.51
2023-04-20T01:47:13.885Z,51.04
2023-04-20T01:49:41.942Z,52.56
2023-04-20T01:52:10.758Z,52.34
2023-04-20T01:54:38.610Z,52.12
2023-04-20T01:57:07.880Z,52.02
2023-04-20T01:59:36.052Z,52.59
2023-04-20T02:02:04.233Z,52.13
2023-04-20T02:04:32.156Z,52.27
2023-04-20T02:07:00.332Z,52.79
2023-04-20T02:09:28.211Z,52.68
2023-04-20T02:11:56.893Z,52.58
2023-04-20T02:14:26.843Z,52.81
2023-04-20T02:16:55.033Z,52.78
2023-04-20T02:19:22.905Z,52.72
2023-04-20T02:21:50.742Z,52.86
2023-04-20T02:24:18.716Z,53.33
2023-04-20T02:26:46.491Z,53.51
2023-04-20T02:29:14.534Z,53.47
2023-04-20T02:31:44.052Z,53.87
2023-04-20T02:34:11.947Z,53.50
2023-04-20T02:36:40.018Z,54.07
2023-04-20T02:39:08.016Z,54.10
2023-04-20T02:41:35.869Z,54.26
2023-04-20T02:44:03.964Z,55.30
2023-04-20T02:46:33.036Z,55.28
2023-04-20T02:49:03.451Z,56.01
2023-04-20T02:51:31.551Z,56.20
2023-04-20T02:53:59.399Z,55.64
2023-04-20T02:56:27.158Z,56.59
2023-04-20T02:58:55.515Z,55.56
2023-04-20T03:01:23.467Z,56.71
2023-04-20T03:03:51.896Z,57.47
2023-04-20T03:06:21.668Z,56.70
2023-04-20T03:08:49.684Z,57.51
2023-04-20T03:11:17.423Z,58.10
2023-04-20T03:13:45.605Z,58.75
2023-04-20T03:16:13.441Z,58.92
2023-04-20T03:18:41.406Z,59.72
2023-04-20T03:21:09.529Z,61.27
2023-04-20T03:23:38.941Z,61.73
2023-04-20T03:26:07.243Z,61.53
2023-04-20T03:28:35.415Z,61.70
2023-04-20T03:31:03.459Z,62.03
2023-04-20T03:33:31.598Z,62.64
2023-04-20T03:35:59.592Z,62.32
2023-04-20T03:38:27.687Z,63.52
2023-04-20T03:40:56.921Z,63.76
2023-04-20T03:43:25.074Z,63.44
2023-04-20T03:45:52.913Z,63.44
2023-04-20T03:48:20.727Z,63.36
2023-04-20T03:50:48.692Z,64.54
2023-04-20T03:53:16.490Z,64.27
2023-04-20T03:55:44.232Z,65.10
2023-04-20T03:58:13.700Z,64.98
2023-04-20T04:00:41.800Z,64.97
2023-04-20T04:03:09.935Z,65.90
2023-04-20T04:05:38.353Z,66.40
2023-04-20T04:08:06.623Z,66.44
2023-04-20T04:10:34.425Z,66.91
2023-04-20T04:13:02.531Z,66.70
2023-04-20T04:15:32.162Z,67.31
2023-04-20T04:18:00.083Z,67.30
2023-04-20T04:20:28.057Z,68.33
2023-04-20T04:22:56.011Z,68.72
2023-04-20T04:25:24.406Z,68.41
2023-04-20T04:27:53.191Z,68.94
2023-04-20T04:30:21.371Z,69.73
2023-04-20T04:32:50.938Z,69.77
2023-04-20T04:35:19.171Z,69.55
2023-04-20T04:37:47.576Z,69.63
2023-04-20T04:40:16.214Z,70.02
2023-04-20T04:42:45.601Z,70.33
2023-04-20T04:45:13.681Z,70.70
2023-04-20T04:47:42.282Z,70.73
2023-04-20T04:50:13.097Z,71.63
2023-04-20T04:52:41.268Z,71.35
2023-04-20T04:55:10.067Z,72.23
2023-04-20T04:57:38.792Z,72.17
2023-04-20T05:00:09.716Z,72.54
2023-04-20T05:02:37.642Z,72.27
2023-04-20T05:05:09.452Z,72.36
2023-04-20T05:07:40.301Z,72.87
2023-04-20T05:10:09.774Z,73.25
2023-04-20T05:12:37.687Z,73.53
2023-04-20T05:15:06.575Z,73.22
2023-04-20T05:17:35.630Z,73.50
2023-04-20T05:20:04.191Z,73.21
2023-04-20T05:22:33.164Z,73.46
2023-04-20T05:25:02.843Z,72.92
2023-04-20T05:27:30.778Z,73.52
2023-04-20T05:30:09.492Z,73.56
2023-04-20T05:32:47.716Z,73.58
2023-04-20T05:35:17.231Z,73.13
2023-04-20T05:37:45.099Z,73.33
2023-04-20T05:40:15.243Z,73.11
2023-04-20T05:42:43.040Z,73.21
2023-04-20T05:45:12.759Z,73.18
2023-04-20T05:47:40.624Z,73.22
2023-04-20T05:50:10.186Z,73.69
2023-04-20T05:52:38.170Z,73.25
2023-04-20T05:55:06.770Z,73.60
2023-04-20T05:57:41.856Z,73.61
2023-04-20T06:00:11.673Z,73.97
2023-04-20T06:02:39.637Z,73.49
2023-04-20T06:05:09.422Z,73.89
2023-04-20T06:07:37.334Z,73.63
2023-04-20T06:10:06.195Z,74.08
2023-04-20T06:12:35.350Z,74.35
2023-04-20T06:15:04.806Z,74.53
2023-04-20T06:17:32.516Z,73.96
2023-04-20T06:20:00.277Z,73.45
2023-04-20T06:22:28.196Z,74.18
2023-04-20T06:24:56.001Z,74.14
2023-04-20T06:27:23.724Z,73.76
2023-04-20T06:29:53.374Z,74.02
2023-04-20T06:32:21.150Z,73.93
2023-04-20T06:34:48.952Z,74.10
2023-04-20T06:37:16.682Z,74.21
2023-04-20T06:39:44.429Z,73.80
2023-04-20T06:42:12.164Z,73.83
2023-04-20T06:44:39.983Z,74.19
2023-04-20T06:47:09.244Z,73.88
2023-04-20T06:49:39.250Z,74.23
2023-04-20T06:52:07.082Z,74.03
2023-04-20T06:54:34.878Z,73.92
2023-04-20T06:57:02.598Z,73.96
2023-04-20T06:59:30.406Z,74.47
2023-04-20T07:01:58.349Z,74.68
2023-04-20T07:04:27.659Z,74.69
2023-04-20T07:06:55.466Z,74.56
2023-04-20T07:09:23.422Z,74.59
2023-04-20T07:11:51.156Z,73.84
2023-04-20T07:14:18.975Z,74.88
2023-04-20T07:16:46.881Z,74.22
2023-04-20T07:19:14.743Z,74.46
2023-04-20T07:21:43.856Z,75.12
2023-04-20T07:24:11.647Z,75.03
2023-04-20T07:26:39.516Z,75.37
2023-04-20T07:29:07.289Z,75.07
2023-04-20T07:31:35.536Z,74.98
2023-04-20T07:34:03.525Z,75.28
2023-04-20T07:36:31.275Z,75.95
2023-04-20T07:39:00.421Z,75.40
2023-04-20T07:41:28.261Z,75.69
2023-04-20T07:43:56.010Z,75.80
2023-04-20T07:46:24.296Z,75.73
2023-04-20T07:48:52.170Z,76.00
2023-04-20T07:51:19.888Z,75.96
2023-04-20T07:53:47.937Z,76.05
2023-04-20T07:56:17.064Z,75.77
2023-04-20T07:58:44.852Z,76.13
2023-04-20T08:01:12.621Z,75.32
2023-04-20T08:03:41.770Z,76.02
2023-04-20T08:06:10.518Z,75.97
2023-04-20T08:08:38.271Z,76.56
2023-04-20T08:11:08.094Z,75.98
2023-04-20T08:13:37.862Z,76.31
2023-04-20T08:16:06.197Z,76.37
2023-04-20T08:18:34.048Z,76.47
2023-04-20T08:21:01.927Z,76.25
2023-04-20T08:23:29.804Z,76.30
2023-04-20T08:25:58.149Z,76.16
2023-04-20T08:28:33.450Z,76.06
2023-04-20T08:31:03.318Z,76.20
2023-04-20T08:33:31.145Z,75.70
2023-04-20T08:35:58.923Z,75.03
2023-04-20T08:38:33.731Z,75.48
2023-04-20T08:41:02.490Z,75.65
2023-04-20T08:43:30.457Z,75.20
2023-04-20T08:46:00.088Z,74.45
2023-04-20T08:48:35.466Z,73.60
2023-04-20T08:51:03.937Z,73.27
2023-04-20T08:53:31.979Z,72.13
2023-04-20T08:55:59.897Z,71.38
2023-04-20T08:58:32.229Z,71.24
2023-04-20T09:01:00.731Z,71.98
2023-04-20T09:03:37.224Z,71.45
2023-04-20T09:06:06.017Z,71.22
2023-04-20T09:08:37.780Z,70.83
2023-04-20T09:11:05.689Z,70.81
2023-04-20T09:13:33.603Z,71.16
2023-04-20T09:16:11.167Z,70.19
2023-04-20T09:18:40.616Z,70.42
2023-04-20T09:21:12.429Z,70.61
2023-04-20T09:23:40.311Z,69.87
2023-04-20T09:26:08.072Z,69.56
2023-04-20T09:28:40.065Z,69.03
2023-04-20T09:31:07.801Z,69.07
2023-04-20T09:33:36.784Z,68.22
2023-04-20T09:36:06.949Z,66.96
2023-04-20T09:38:34.764Z,65.64
2023-04-20T09:41:02.861Z,65.31
2023-04-20T09:43:31.410Z,65.26
2023-04-20T09:45:59.362Z,65.61
2023-04-20T09:48:27.205Z,64.98
2023-04-20T09:50:55.188Z,64.48
2023-04-20T09:53:24.501Z,61.91
2023-04-20T09:55:52.454Z,62.21
2023-04-20T09:58:21.388Z,62.10
2023-04-20T10:00:49.681Z,61.65
2023-04-20T10:03:19.179Z,61.44
2023-04-20T10:05:47.139Z,60.89
2023-04-20T10:08:14.967Z,60.35
2023-04-20T10:10:48.617Z,59.38
2023-04-20T10:13:19.436Z,57.06
2023-04-20T10:15:47.609Z,57.46
2023-04-20T10:18:19.982Z,57.30
2023-04-20T10:20:48.282Z,56.46
2023-04-20T10:23:18.482Z,56.12
2023-04-20T10:25:58.328Z,55.99
2023-04-20T10:28:26.253Z,54.73
2023-04-20T10:30:54.580Z,54.68
2023-04-20T10:33:22.858Z,54.91
2023-04-20T10:35:54.666Z,53.43
2023-04-20T10:38:30.534Z,53.93
2023-04-20T10:41:07.145Z,53.49
2023-04-20T10:43:35.532Z,52.08
2023-04-20T10:46:03.350Z,51.00
2023-04-20T10:48:31.400Z,48.70
2023-04-20T10:50:59.195Z,47.54
2023-04-20T10:53:27.245Z,47.84
2023-04-20T10:56:06.051Z,47.41
2023-04-20T10:58:33.876Z,47.80
2023-04-20T11:01:03.306Z,45.17
2023-04-20T11:03:32.092Z,45.05
2023-04-20T11:06:01.662Z,45.44
2023-04-20T11:08:42.274Z,43.70
2023-04-20T11:11:20.962Z,44.48
2023-04-20T11:13:49.032Z,45.26
2023-04-20T11:16:18.814Z,45.41
2023-04-20T11:18:51.952Z,43.33
2023-04-20T11:21:19.931Z,44.31
2023-04-20T11:23:47.941Z,42.69
2023-04-20T11:26:15.924Z,42.91
2023-04-20T11:28:55.574Z,42.21
2023-04-20T11:31:24.333Z,43.23
2023-04-20T11:33:52.412Z,41.68
2023-04-20T11:36:21.496Z,41.13
2023-04-20T11:38:49.793Z,40.43
2023-04-20T11:41:18.352Z,42.26
2023-04-20T11:43:46.641Z,39.96
2023-04-20T11:46:18.015Z,40.99
2023-04-20T11:48:46.404Z,40.97
2023-04-20T11:51:14.685Z,40.63
2023-04-20T11:53:42.701Z,41.17
2023-04-20T11:56:10.727Z,42.07
2023-04-20T11:58:38.663Z,42.21
2023-04-20T12:01:06.849Z,42.50
2023-04-20T12:03:37.068Z,41.89
2023-04-20T12:06:05.418Z,40.57
2023-04-20T12:08:33.283Z,41.29
2023-04-20T12:11:01.339Z,43.07
2023-04-20T12:13:29.360Z,42.32
2023-04-20T12:15:57.171Z,41.77
2023-04-20T12:18:25.365Z,43.08
2023-04-20T12:20:54.941Z,41.68
2023-04-20T12:23:22.903Z,39.58
2023-04-20T12:25:50.717Z,40.02
2023-04-20T12:28:19.277Z,38.59
2023-04-20T12:30:47.414Z,38.91
2023-04-20T12:33:15.267Z,39.55
2023-04-20T12:35:43.317Z,38.54
2023-04-20T12:38:14.520Z,39.49
2023-04-20T12:40:43.073Z,40.96
2023-04-20T12:43:11.082Z,40.34
2023-04-20T12:45:38.951Z,41.41
2023-04-20T12:48:07.190Z,39.93
2023-04-20T12:50:35.313Z,40.24
2023-04-20T12:53:03.299Z,39.63
2023-04-20T12:55:32.622Z,38.54
2023-04-20T12:58:00.801Z,37.65
2023-04-20T13:00:28.695Z,38.35
2023-04-20T13:02:56.657Z,38.87
2023-04-20T13:05:24.963Z,38.50
2023-04-20T13:07:53.004Z,39.34
2023-04-20T13:10:20.787Z,38.83
2023-04-20T13:12:51.707Z,39.39
2023-04-20T13:15:31.725Z,38.31
2023-04-20T13:18:06.566Z,37.18
2023-04-20T13:20:34.678Z,36.88
2023-04-20T13:23:02.587Z,36.95
2023-04-20T13:25:32.791Z,36.55
2023-04-20T13:28:03.605Z,36.95
2023-04-20T13:30:31.777Z,37.21
2023-04-20T13:32:59.771Z,36.56
2023-04-20T13:35:27.800Z,37.65
2023-04-20T13:37:56.169Z,38.07
2023-04-20T13:40:23.984Z,38.27
2023-04-20T13:42:51.728Z,39.02
2023-04-20T13:45:21.110Z,38.43
2023-04-20T13:47:49.060Z,38.05
2023-04-20T13:50:16.849Z,38.31
2023-04-20T13:52:45.050Z,38.45
2023-04-20T13:55:12.893Z,39.44
2023-04-20T13:57:40.910Z,37.86
2023-04-20T14:00:10.204Z,40.23
2023-04-20T14:02:39.716Z,39.07
2023-04-20T14:05:08.646Z,39.55
2023-04-20T14:07:36.396Z,39.66
2023-04-20T14:10:04.957Z,42.11
2023-04-20T14:12:33.878Z,43.56
2023-04-20T14:15:02.489Z,44.82
2023-04-20T14:17:31.759Z,45.49
2023-04-20T14:20:01.450Z,47.36
2023-04-20T14:22:34.243Z,47.50
2023-04-20T14:25:02.378Z,46.92
2023-04-20T14:27:30.368Z,46.75
2023-04-20T14:29:58.251Z,47.09
2023-04-20T14:32:26.491Z,46.76
2023-04-20T14:34:54.609Z,47.73
2023-04-20T14:37:24.933Z,47.92
2023-04-20T14:39:52.696Z,48.77
2023-04-20T14:42:21.294Z,47.64
2023-04-20T14:44:49.605Z,49.04
2023-04-20T14:47:17.671Z,49.50
2023-04-20T14:49:45.571Z,50.51
2023-04-20T14:52:13.334Z,49.52
2023-04-20T14:54:42.678Z,49.45
2023-04-20T14:57:11.026Z,49.39
2023-04-20T14:59:41.365Z,49.49
2023-04-20T15:02:09.383Z,49.85
2023-04-20T15:04:37.517Z,49.66
2023-04-20T15:07:06.034Z,48.72
2023-04-20T15:09:34.039Z,49.36
2023-04-20T15:12:04.018Z,48.99
2023-04-20T15:14:31.823Z,49.76
2023-04-20T15:17:00.014Z,50.29
2023-04-20T15:19:27.949Z,51.54
2023-04-20T15:21:55.693Z,51.57
2023-04-20T15:24:23.973Z,51.67
2023-04-20T15:26:51.859Z,51.46
2023-04-20T15:29:21.432Z,50.25
2023-04-20T15:31:50.510Z,50.85
2023-04-20T15:34:18.914Z,51.85
2023-04-20T15:36:47.153Z,51.48
2023-04-20T15:39:15.052Z,51.39
2023-04-20T15:41:43.606Z,52.16
2023-04-20T15:44:11.441Z,52.20
2023-04-20T15:46:41.022Z,51.35
2023-04-20T15:49:08.940Z,51.28
2023-04-20T15:51:37.341Z,51.70
2023-04-20T15:54:05.664Z,52.32
2023-04-20T15:56:33.521Z,51.74
2023-04-20T15:59:01.787Z,52.08
2023-04-20T16:01:29.813Z,51.50
2023-04-20T16:03:59.383Z,51.73
2023-04-20T16:06:27.794Z,52.25
2023-04-20T16:08:57.304Z,53.35
2023-04-20T16:11:25.068Z,52.62
2023-04-20T16:13:55.632Z,53.72
2023-04-20T16:16:23.715Z,54.53
2023-04-20T16:18:52.230Z,55.60
2023-04-20T16:21:22.496Z,54.82
2023-04-20T16:23:53.285Z,54.84
2023-04-20T16:26:21.196Z,55.55
2023-04-20T16:28:49.422Z,56.47
2023-04-20T16:31:17.797Z,57.18
2023-04-20T16:33:46.034Z,57.24
2023-04-20T16:36:16.435Z,58.30
2023-04-20T16:38:45.691Z,57.59
2023-04-20T16:41:14.976Z,58.43
2023-04-20T16:43:43.026Z,58.37
2023-04-20T16:46:13.477Z,58.53
2023-04-20T16:48:41.957Z,58.80
2023-04-20T16:51:09.865Z,59.28
2023-04-20T16:53:37.922Z,59.13
2023-04-20T16:56:08.222Z,59.21
2023-04-20T16:58:37.629Z,59.78
2023-04-20T17:01:06.265Z,59.73
2023-04-20T17:03:34.508Z,59.79
2023-04-20T17:06:07.766Z,59.49
2023-04-20T17:08:37.548Z,59.95
2023-04-20T17:11:07.215Z,60.94
2023-04-20T17:13:35.393Z,61.47
2023-04-20T17:16:03.600Z,61.47
2023-04-20T17:18:34.274Z,61.79
2023-04-20T17:21:02.994Z,62.39
2023-04-20T17:23:31.047Z,62.53
2023-04-20T17:25:59.370Z,62.73
2023-04-20T17:28:28.668Z,63.44
2023-04-20T17:30:56.637Z,63.45
2023-04-20T17:33:24.433Z,63.83
2023-04-20T17:35:52.452Z,63.65
2023-04-20T17:38:20.216Z,63.59
2023-04-20T17:40:48.111Z,63.68
2023-04-20T17:43:16.008Z,63.40
2023-04-20T17:45:45.358Z,64.52
2023-04-20T17:48:13.166Z,64.01
2023-04-20T17:50:40.949Z,63.75
2023-04-20T17:53:08.666Z,63.95
2023-04-20T17:55:36.569Z,64.19
2023-04-20T17:58:04.331Z,64.32
2023-04-20T18:00:32.367Z,64.67
2023-04-20T18:03:01.718Z,65.26
2023-04-20T18:05:29.642Z,65.31
2023-04-20T18:07:57.421Z,66.00
2023-04-20T18:10:25.183Z,66.26
2023-04-20T18:12:53.819Z,66.37
2023-04-20T18:15:21.852Z,66.31
2023-04-20T18:17:50.329Z,66.85
2023-04-20T18:20:19.534Z,66.67
2023-04-20T18:22:50.297Z,66.93
2023-04-20T18:25:18.935Z,67.43
2023-04-20T18:27:46.856Z,67.18
2023-04-20T18:30:14.979Z,67.52
2023-04-20T18:32:43.241Z,67.88
2023-04-20T18:35:11.454Z,67.79
2023-04-20T18:37:40.594Z,68.04
2023-04-20T18:40:09.659Z,68.08
2023-04-20T18:42:37.459Z,68.04
2023-04-20T18:45:06.144Z,68.33
2023-04-20T18:47:34.712Z,68.67
2023-04-20T18:50:02.568Z,68.59
2023-04-20T18:52:33.170Z,69.14
2023-04-20T18:55:02.694Z,68.92
2023-04-20T18:57:30.582Z,69.41
2023-04-20T18:59:58.324Z,69.61
2023-04-20T19:02:26.309Z,70.35
2023-04-20T19:04:54.182Z,70.21
2023-04-20T19:07:22.004Z,70.39
2023-04-20T19:09:49.838Z,70.77
2023-04-20T19:12:19.108Z,71.51
2023-04-20T19:14:49.120Z,71.95
2023-04-20T19:17:17.284Z,72.85
2023-04-20T19:19:45.689Z,73.32
2023-04-20T19:22:13.450Z,73.78
2023-04-20T19:24:41.229Z,74.08
2023-04-20T19:27:09.124Z,74.78
2023-04-20T19:29:38.214Z,75.37
2023-04-20T19:32:06.445Z,76.20
2023-04-20T19:34:34.223Z,75.98
2023-04-20T19:37:01.982Z,76.46
2023-04-20T19:39:30.216Z,76.68
2023-04-20T19:41:58.494Z,76.77
2023-04-20T19:44:26.458Z,77.11
2023-04-20T19:46:55.599Z,77.11
2023-04-20T19:49:23.598Z,77.25
2023-04-20T19:51:51.356Z,77.77
2023-04-20T19:54:19.109Z,77.97
2023-04-20T19:56:49.830Z,77.98
2023-04-20T19:59:17.995Z,78.98
2023-04-20T20:01:46.187Z,78.74
2023-04-20T20:04:15.533Z,78.54
2023-04-20T20:06:44.010Z,78.36
2023-04-20T20:09:11.799Z,78.93
2023-04-20T20:11:39.548Z,78.72
2023-04-20T20:14:07.701Z,79.21
2023-04-20T20:16:36.118Z,79.22
2023-04-20T20:19:04.029Z,79.62
2023-04-20T20:21:33.212Z,79.96
2023-04-20T20:24:00.960Z,80.37
2023-04-20T20:26:28.964Z,80.12
2023-04-20T20:28:56.701Z,80.67
2023-04-20T20:31:24.660Z,80.51
2023-04-20T20:33:52.481Z,80.51
2023-04-20T20:36:20.381Z,80.44
2023-04-20T20:38:49.500Z,80.84
2023-04-20T20:41:18.377Z,80.96
2023-04-20T20:43:46.258Z,81.06
2023-04-20T20:46:14.270Z,80.64
2023-04-20T20:48:42.102Z,81.28
2023-04-20T20:51:09.842Z,81.44
2023-04-20T20:53:37.606Z,81.15
2023-04-20T20:56:07.100Z,81.98
2023-04-20T20:58:35.025Z,81.60
2023-04-20T21:01:02.876Z,82.01
2023-04-20T21:03:31.370Z,82.21
2023-04-20T21:05:59.270Z,82.10
2023-04-20T21:08:27.091Z,81.81
2023-04-20T21:10:54.851Z,81.96
2023-04-20T21:13:23.992Z,82.60
2023-04-20T21:15:51.938Z,82.50
2023-04-20T21:18:19.825Z,82.09
2023-04-20T21:20:47.551Z,82.62
2023-04-20T21:23:15.451Z,82.82
2023-04-20T21:25:43.327Z,82.75
2023-04-20T21:28:11.065Z,82.64
2023-04-20T21:30:40.310Z,82.04
2023-04-20T21:33:08.143Z,82.31
2023-04-20T21:35:36.079Z,82.79
2023-04-20T21:38:04.755Z,82.71
2023-04-20T21:40:34.257Z,83.05
2023-04-20T21:43:02.560Z,82.81
2023-04-20T21:45:30.631Z,83.15
2023-04-20T21:47:59.993Z,83.30
2023-04-20T21:50:28.596Z,83.21
2023-04-20T21:52:56.980Z,83.53
2023-04-20T21:55:25.084Z,83.50
2023-04-20T21:57:52.834Z,83.51
2023-04-20T22:00:21.180Z,83.61
2023-04-20T22:02:50.331Z,83.70
2023-04-20T22:05:20.136Z,84.00
2023-04-20T22:07:47.927Z,83.74
2023-04-20T22:10:16.229Z,83.14
2023-04-20T22:12:44.341Z,83.34
2023-04-20T22:15:14.698Z,83.48
2023-04-20T22:17:45.637Z,83.15
2023-04-20T22:20:14.172Z,83.77
2023-04-20T22:22:43.610Z,83.50
2023-04-20T22:25:11.651Z,83.95
2023-04-20T22:27:39.952Z,83.89
2023-04-20T22:30:09.835Z,83.71
2023-04-20T22:32:37.952Z,83.42
2023-04-20T22:35:07.208Z,83.90
2023-04-20T22:37:35.788Z,83.93
2023-04-20T22:40:07.596Z,83.79
2023-04-20T22:42:36.080Z,83.87
2023-04-20T22:45:04.693Z,84.35
2023-04-20T22:47:32.609Z,84.43
2023-04-20T22:50:01.727Z,84.56
2023-04-20T22:52:30.940Z,84.75
2023-04-20T22:54:58.964Z,84.78
2023-04-20T22:57:28.176Z,84.33
2023-04-20T22:59:55.993Z,84.42
2023-04-20T23:02:24.252Z,83.81
2023-04-20T23:04:52.714Z,84.10
2023-04-20T23:07:21.652Z,83.93
2023-04-20T23:09:49.492Z,83.96
2023-04-20T23:12:18.316Z,84.15
2023-04-20T23:14:48.081Z,84.13
2023-04-20T23:17:16.182Z,83.73
2023-04-20T23:19:43.919Z,84.05
2023-04-20T23:22:12.076Z,83.86
2023-04-20T23:24:39.931Z,84.20
2023-04-20T23:27:07.738Z,84.53
2023-04-20T23:29:36.120Z,84.41
2023-04-20T23:32:06.010Z,84.01
2023-04-20T23:34:33.840Z,84.34
2023-04-20T23:37:02.149Z,84.51
2023-04-20T23:39:30.265Z,84.23
2023-04-20T23:41:58.073Z,84.25
2023-04-20T23:44:26.335Z,84.75
2023-04-20T23:46:54.187Z,84.64
2023-04-20T23:49:23.346Z,84.63
2023-04-20T23:51:51.557Z,84.92
2023-04-20T23:54:19.871Z,84.62
2023-04-20T23:56:47.963Z,84.70
2023-04-20T23:59:16.357Z,84.75
